Time;durP1;ratioP1;P1;durP2;ratioP2;P2;SDS_P1;SDS_P2;PMS_P1;PMS_P2;Temp;Humidity;BMP_temperature;BMP_pressure;BME280_temperature;BME280_humidity;BME280_pressure;Samples;Min_cycle;Max_cycle;Signal;HPM_P1;HPM_P2
2021/03/10 00:00:40;;;;;;;23.13;16.90;;;5.60;99.90;;;;;;5015772;28;20033;-69
2021/03/10 00:03:06;;;;;;;22.63;17.52;;;5.60;99.90;;;;;;5017618;28;20500;-69
2021/03/10 00:05:31;;;;;;;25.27;17.48;;;5.60;99.90;;;;;;5018818;28;20517;-69
2021/03/10 00:07:57;;;;;;;22.25;17.70;;;5.60;99.90;;;;;;5014643;28;20105;-68
2021/03/10 00:10:23;;;;;;;21.98;18.42;;;5.60;99.90;;;;;;5013593;28;20113;-69
2021/03/10 00:12:48;;;;;;;23.33;17.23;;;5.60;99.90;;;;;;5013539;28;20022;-69
2021/03/10 00:15:14;;;;;;;20.45;17.13;;;5.60;99.90;;;;;;5016184;28;20076;-68
2021/03/10 00:17:42;;;;;;;23.58;18.52;;;5.60;99.90;;;;;;5021511;28;20097;-69
2021/03/10 00:20:10;;;;;;;23.25;17.23;;;5.50;99.90;;;;;;5023251;28;20086;-69
2021/03/10 00:22:36;;;;;;;22.92;17.83;;;5.50;99.90;;;;;;5005434;28;20026;-69
2021/03/10 00:25:03;;;;;;;22.73;18.60;;;5.50;99.90;;;;;;5019719;28;20025;-69
2021/03/10 00:27:29;;;;;;;21.92;17.13;;;5.50;99.90;;;;;;5019552;28;20112;-70
2021/03/10 00:29:57;;;;;;;21.08;17.15;;;5.50;99.90;;;;;;5021855;28;20054;-69
2021/03/10 00:32:25;;;;;;;24.35;18.55;;;5.50;99.90;;;;;;5017280;28;20091;-68
2021/03/10 00:34:51;;;;;;;21.95;17.15;;;5.50;99.90;;;;;;5016862;28;20041;-68
2021/03/10 00:37:18;;;;;;;22.75;17.80;;;5.50;99.90;;;;;;5016880;28;20026;-69
2021/03/10 00:39:44;;;;;;;24.23;16.88;;;5.50;99.90;;;;;;5016763;28;20033;-68
2021/03/10 00:42:10;;;;;;;23.52;18.50;;;5.50;99.90;;;;;;5016307;28;20033;-68
2021/03/10 00:44:36;;;;;;;23.27;17.85;;;5.60;99.90;;;;;;5016648;28;20101;-68
2021/03/10 00:47:02;;;;;;;25.35;19.08;;;5.50;99.90;;;;;;5016880;28;20064;-68
2021/03/10 00:49:27;;;;;;;26.85;18.88;;;5.50;99.90;;;;;;5016742;28;20022;-68
2021/03/10 00:51:53;;;;;;;24.90;19.25;;;5.50;99.90;;;;;;5016601;28;20386;-68
2021/03/10 00:54:18;;;;;;;25.55;18.30;;;5.50;99.90;;;;;;5017446;28;20022;-67
2021/03/10 00:56:44;;;;;;;25.75;19.77;;;5.50;99.90;;;;;;5017345;28;20025;-68
2021/03/10 00:59:10;;;;;;;27.25;19.55;;;5.50;99.90;;;;;;5016191;28;20026;-68
2021/03/10 01:01:35;;;;;;;28.85;20.52;;;5.50;99.90;;;;;;5016356;28;20053;-68
2021/03/10 01:04:01;;;;;;;26.98;19.83;;;5.60;99.90;;;;;;5017308;28;20269;-68
2021/03/10 01:06:27;;;;;;;27.88;20.95;;;5.60;99.90;;;;;;5021273;28;20105;-69
2021/03/10 01:08:52;;;;;;;30.90;21.90;;;5.60;99.90;;;;;;5023308;28;20030;-69
2021/03/10 01:11:18;;;;;;;29.55;21.00;;;5.60;99.90;;;;;;5023314;28;20087;-69
2021/03/10 01:13:44;;;;;;;31.02;21.75;;;5.60;99.90;;;;;;5020459;28;20062;-70
2021/03/10 01:16:10;;;;;;;32.70;22.17;;;5.60;99.90;;;;;;5019440;28;20033;-68
2021/03/10 01:18:36;;;;;;;30.83;21.70;;;5.60;99.90;;;;;;5017546;28;20030;-68
2021/03/10 01:21:02;;;;;;;34.75;21.55;;;5.60;99.90;;;;;;5017593;28;20505;-68
2021/03/10 01:23:27;;;;;;;31.48;21.85;;;5.60;99.90;;;;;;5016171;28;20029;-69
2021/03/10 01:25:53;;;;;;;33.50;22.00;;;5.60;99.90;;;;;;5017487;28;20084;-68
2021/03/10 01:28:19;;;;;;;34.22;22.85;;;5.60;99.90;;;;;;5017510;28;20034;-68
2021/03/10 01:30:44;;;;;;;34.60;22.50;;;5.70;99.90;;;;;;5017101;28;20022;-68
2021/03/10 01:33:10;;;;;;;33.00;21.88;;;5.70;99.90;;;;;;5016804;28;20045;-68
2021/03/10 01:35:36;;;;;;;29.15;22.67;;;5.70;99.90;;;;;;5015462;28;20638;-68
2021/03/10 01:38:01;;;;;;;35.75;22.98;;;5.70;99.90;;;;;;5020341;28;20026;-68
2021/03/10 01:40:27;;;;;;;32.78;22.20;;;5.70;99.90;;;;;;5019747;28;20033;-68
2021/03/10 01:42:53;;;;;;;30.48;22.10;;;5.60;99.90;;;;;;5020793;28;20053;-68
2021/03/10 01:45:18;;;;;;;34.05;22.85;;;5.60;99.90;;;;;;5018355;28;20539;-68
2021/03/10 01:47:46;;;;;;;33.53;22.00;;;5.50;99.90;;;;;;5017129;28;20113;-69
2021/03/10 01:50:16;;;;;;;31.48;22.70;;;5.60;99.90;;;;;;5017356;28;20025;-68
2021/03/10 01:52:42;;;;;;;34.67;23.88;;;5.50;99.90;;;;;;5017439;28;20030;-69
2021/03/10 01:55:09;;;;;;;31.30;22.02;;;5.50;99.90;;;;;;5015783;28;20393;-69
2021/03/10 01:57:35;;;;;;;33.65;22.30;;;5.50;99.90;;;;;;5016046;28;20018;-69
2021/03/10 02:00:06;;;;;;;29.02;20.70;;;5.40;99.90;;;;;;5016284;28;20056;-68
2021/03/10 02:02:31;;;;;;;29.17;21.52;;;5.50;99.90;;;;;;5015827;28;20116;-69
2021/03/10 02:04:57;;;;;;;25.88;20.42;;;5.40;99.90;;;;;;5015572;28;20465;-69
2021/03/10 02:07:28;;;;;;;29.83;20.00;;;5.40;99.90;;;;;;5016157;28;20021;-69
2021/03/10 02:10:14;;;;;;;25.77;20.35;;;5.40;99.90;;;;;;5016039;28;20018;-69
2021/03/10 02:13:07;;;;;;;31.50;21.88;;;5.30;99.90;;;;;;5016092;28;20377;-69
2021/03/10 02:15:48;;;;;;;29.13;20.38;;;5.20;99.90;;;;;;5015848;28;20026;-69
2021/03/10 02:18:23;;;;;;;28.67;20.70;;;5.10;99.90;;;;;;5016020;28;20018;-69
2021/03/10 02:20:53;;;;;;;28.35;20.70;;;5.10;99.90;;;;;;5015730;28;20596;-69
2021/03/10 02:23:44;;;;;;;27.50;20.33;;;5.10;99.90;;;;;;5015679;28;20076;-68
2021/03/10 02:26:22;;;;;;;;;;;5.10;99.90;;;;;;5016300;28;20022;-68
2021/03/10 02:28:50;;;;;;;33.50;22.80;;;5.00;99.90;;;;;;5015077;28;20560;-68
2021/03/10 02:31:17;;;;;;;32.83;22.70;;;5.10;99.90;;;;;;5015387;28;20037;-68
2021/03/10 02:33:44;;;;;;;33.15;21.45;;;5.10;99.90;;;;;;5015793;28;20030;-67
2021/03/10 02:36:11;;;;;;;37.45;24.98;;;5.10;99.90;;;;;;5016142;28;20676;-68
2021/03/10 02:38:43;;;;;;;30.67;21.92;;;5.20;99.90;;;;;;5016261;28;20037;-68
2021/03/10 02:41:10;;;;;;;32.63;21.08;;;5.20;99.90;;;;;;5017473;28;20109;-69
2021/03/10 02:43:38;;;;;;;33.05;23.25;;;5.20;99.90;;;;;;5015090;28;20022;-68
2021/03/10 02:46:05;;;;;;;32.10;21.25;;;5.10;99.90;;;;;;5015078;28;20026;-69
2021/03/10 02:48:32;;;;;;;28.95;21.48;;;5.20;99.90;;;;;;5014958;28;20022;-69
2021/03/10 02:50:58;;;;;;;31.00;21.80;;;5.20;99.90;;;;;;5014746;28;20193;-69
2021/03/10 02:53:24;;;;;;;32.38;22.38;;;5.20;99.90;;;;;;5014819;28;20566;-69
2021/03/10 02:55:49;;;;;;;30.77;21.88;;;5.20;99.90;;;;;;5014957;28;20026;-69
2021/03/10 02:58:16;;;;;;;33.65;24.00;;;5.20;99.90;;;;;;5014230;28;20053;-68
2021/03/10 03:00:42;;;;;;;33.80;22.90;;;5.20;99.90;;;;;;5014533;28;20104;-68
2021/03/10 03:03:08;;;;;;;31.13;22.73;;;5.20;99.90;;;;;;5014355;28;20105;-68
2021/03/10 03:05:35;;;;;;;35.35;23.20;;;5.20;99.90;;;;;;5014445;28;20072;-69
2021/03/10 03:08:01;;;;;;;34.60;22.73;;;5.20;99.90;;;;;;5014988;28;20107;-69
2021/03/10 03:10:39;;;;;;;35.45;23.67;;;5.20;99.90;;;;;;5015015;28;20062;-68
2021/03/10 03:13:09;;;;;;;33.53;22.13;;;5.10;99.90;;;;;;5014476;28;20394;-68
2021/03/10 03:15:36;;;;;;;34.22;23.70;;;5.20;99.90;;;;;;5013201;28;20021;-68
2021/03/10 03:18:04;;;;;;;34.60;23.88;;;5.20;99.90;;;;;;5014785;28;20101;-68
2021/03/10 03:20:29;;;;;;;36.28;24.00;;;5.20;99.90;;;;;;5015440;28;20026;-69
2021/03/10 03:22:57;;;;;;;30.45;23.02;;;5.20;99.90;;;;;;5016194;28;20025;-68
2021/03/10 03:25:27;;;;;;;36.20;24.60;;;5.20;99.90;;;;;;5013903;28;20050;-68
2021/03/10 03:27:56;;;;;;;34.83;23.83;;;5.10;99.90;;;;;;5015295;28;20041;-68
2021/03/10 03:30:27;;;;;;;36.22;23.48;;;5.20;99.90;;;;;;5015819;28;20021;-68
2021/03/10 03:32:55;;;;;;;33.38;23.20;;;5.10;99.90;;;;;;5014749;28;20022;-67
2021/03/10 03:35:22;;;;;;;34.75;23.40;;;5.20;99.90;;;;;;5014679;28;20560;-68
2021/03/10 03:37:50;;;;;;;33.45;23.08;;;5.20;99.90;;;;;;5015235;28;20073;-68
2021/03/10 03:40:18;;;;;;;41.90;23.85;;;5.10;99.90;;;;;;5019037;28;20025;-68
2021/03/10 03:42:45;;;;;;;36.75;24.75;;;5.10;99.90;;;;;;5020093;28;20022;-69
2021/03/10 03:45:11;;;;;;;33.83;22.63;;;5.10;99.90;;;;;;5017297;28;20080;-69
2021/03/10 03:47:38;;;;;;;34.38;23.52;;;5.10;99.90;;;;;;5017735;28;20084;-68
2021/03/10 03:50:05;;;;;;;35.17;23.17;;;5.10;99.90;;;;;;5018928;28;20085;-68
2021/03/10 03:52:30;;;;;;;34.08;22.85;;;5.10;99.90;;;;;;5021482;28;20026;-68
2021/03/10 03:54:56;;;;;;;34.65;23.95;;;5.10;99.90;;;;;;5016367;28;20192;-68
2021/03/10 03:57:22;;;;;;;38.80;25.02;;;5.00;99.90;;;;;;5015162;28;20030;-68
2021/03/10 03:59:47;;;;;;;36.15;24.83;;;5.10;99.90;;;;;;5014237;28;20529;-68
2021/03/10 04:02:13;;;;;;;34.63;23.42;;;5.10;99.90;;;;;;5013642;28;20033;-68
2021/03/10 04:04:38;;;;;;;36.88;25.63;;;5.00;99.90;;;;;;5019016;28;20026;-68
2021/03/10 04:07:04;;;;;;;38.70;25.00;;;5.10;99.90;;;;;;5018094;28;20029;-69
2021/03/10 04:09:29;;;;;;;38.65;27.27;;;5.10;99.90;;;;;;5018283;28;20449;-69
2021/03/10 04:11:55;;;;;;;41.80;25.83;;;5.10;99.90;;;;;;5018153;28;20026;-68
2021/03/10 04:14:21;;;;;;;40.92;27.08;;;5.10;99.90;;;;;;5016058;28;20022;-68
2021/03/10 04:16:47;;;;;;;40.42;26.02;;;5.10;99.90;;;;;;5014518;28;20041;-68
2021/03/10 04:19:12;;;;;;;38.13;25.15;;;5.10;99.90;;;;;;5013400;28;20022;-68
2021/03/10 04:21:38;;;;;;;44.22;26.95;;;5.10;99.90;;;;;;5014220;28;20036;-69
2021/03/10 04:24:05;;;;;;;41.63;25.92;;;5.10;99.90;;;;;;5013796;28;20030;-69
2021/03/10 04:26:31;;;;;;;37.72;25.65;;;5.10;99.90;;;;;;5014360;28;20026;-68
2021/03/10 04:28:57;;;;;;;39.53;26.50;;;5.10;99.90;;;;;;5013719;28;20044;-69
2021/03/10 04:31:22;;;;;;;41.22;26.05;;;5.10;99.90;;;;;;5014319;28;20498;-68
2021/03/10 04:33:48;;;;;;;40.58;25.85;;;5.10;99.90;;;;;;5013706;28;20030;-68
2021/03/10 04:36:14;;;;;;;38.13;24.58;;;5.10;99.90;;;;;;5013457;28;20481;-68
2021/03/10 04:38:40;;;;;;;37.95;26.50;;;5.10;99.90;;;;;;5013521;28;20389;-69
2021/03/10 04:41:05;;;;;;;39.70;26.55;;;5.10;99.90;;;;;;5011972;28;20390;-69
2021/03/10 04:43:31;;;;;;;36.58;24.42;;;5.10;99.90;;;;;;5013514;28;20030;-69
2021/03/10 04:45:56;;;;;;;39.78;26.83;;;5.00;99.90;;;;;;5013358;28;20065;-69
2021/03/10 04:48:22;;;;;;;38.00;26.70;;;5.00;99.90;;;;;;5013448;28;20022;-68
2021/03/10 04:50:49;;;;;;;41.85;24.75;;;5.00;99.90;;;;;;5013218;28;20030;-68
2021/03/10 04:53:14;;;;;;;39.45;24.58;;;5.00;99.90;;;;;;5013213;28;20105;-68
2021/03/10 04:55:40;;;;;;;40.35;26.13;;;5.00;99.90;;;;;;5013320;28;20508;-68
2021/03/10 04:58:06;;;;;;;40.28;26.85;;;5.00;99.90;;;;;;5012236;28;20363;-69
2021/03/10 05:00:31;;;;;;;37.63;25.45;;;5.00;99.90;;;;;;5013183;28;20026;-68
2021/03/10 05:02:57;;;;;;;40.13;26.35;;;5.00;99.90;;;;;;5014414;28;20057;-69
2021/03/10 05:05:22;;;;;;;45.88;28.30;;;5.00;99.90;;;;;;5019637;28;20080;-69
2021/03/10 05:07:48;;;;;;;40.63;27.13;;;5.10;99.90;;;;;;5021187;28;20072;-69
2021/03/10 05:10:15;;;;;;;44.80;27.55;;;5.00;99.90;;;;;;5023218;28;20037;-68
2021/03/10 05:12:40;;;;;;;39.45;27.15;;;5.10;99.90;;;;;;5020564;28;20025;-68
2021/03/10 05:15:06;;;;;;;39.40;27.25;;;5.00;99.90;;;;;;5015814;28;20029;-68
2021/03/10 05:17:32;;;;;;;42.58;27.40;;;5.00;99.90;;;;;;5017576;28;20473;-69
2021/03/10 05:19:58;;;;;;;42.22;27.75;;;5.00;99.90;;;;;;5017582;28;20044;-67
2021/03/10 05:22:25;;;;;;;41.20;26.08;;;5.00;99.90;;;;;;5020531;28;20033;-69
2021/03/10 05:24:50;;;;;;;40.25;26.85;;;5.00;99.90;;;;;;5030483;28;20018;-69
2021/03/10 05:27:16;;;;;;;39.55;27.15;;;5.00;99.90;;;;;;5034746;28;20033;-68
2021/03/10 05:29:43;;;;;;;39.90;26.73;;;5.00;99.90;;;;;;5037538;28;20036;-68
2021/03/10 05:32:08;;;;;;;40.30;26.77;;;5.10;99.90;;;;;;5035564;28;20018;-68
2021/03/10 05:34:34;;;;;;;44.05;27.15;;;5.10;99.90;;;;;;5036589;28;20038;-68
2021/03/10 05:37:00;;;;;;;44.90;26.05;;;5.10;99.90;;;;;;5037289;28;20050;-69
2021/03/10 05:39:26;;;;;;;42.83;24.77;;;5.10;99.90;;;;;;5037148;28;20013;-68
2021/03/10 05:41:52;;;;;;;42.80;27.98;;;5.10;99.90;;;;;;5037405;28;20048;-70
2021/03/10 05:44:18;;;;;;;38.03;25.73;;;5.00;99.90;;;;;;5035443;28;20065;-68
2021/03/10 05:46:43;;;;;;;38.35;26.85;;;4.90;99.90;;;;;;5035815;28;20045;-68
2021/03/10 05:49:09;;;;;;;43.03;26.20;;;4.90;99.90;;;;;;5037630;28;20048;-69
2021/03/10 05:51:36;;;;;;;38.75;25.50;;;5.00;99.90;;;;;;5036829;28;20029;-68
2021/03/10 05:54:04;;;;;;;35.85;26.75;;;5.10;99.90;;;;;;5035068;28;20029;-68
2021/03/10 05:56:31;;;;;;;41.75;26.25;;;5.10;99.90;;;;;;5036952;28;20014;-68
2021/03/10 05:59:04;;;;;;;39.65;26.55;;;5.10;99.90;;;;;;5037913;28;20033;-68
2021/03/10 06:01:30;;;;;;;40.13;26.38;;;5.00;99.90;;;;;;5038099;28;20029;-68
2021/03/10 06:04:01;;;;;;;42.92;27.48;;;5.00;99.90;;;;;;5038161;28;20081;-69
2021/03/10 06:06:33;;;;;;;;;;;5.10;99.90;;;;;;5039360;28;20033;-68
2021/03/10 06:09:18;;;;;;;40.47;25.55;;;5.10;99.90;;;;;;5038762;28;19943;-69
2021/03/10 06:12:04;;;;;;;40.72;27.40;;;5.20;99.90;;;;;;5038897;28;20026;-68
2021/03/10 06:14:31;;;;;;;43.42;27.20;;;5.20;99.90;;;;;;5035732;28;20022;-68
2021/03/10 06:17:08;;;;;;;43.40;28.05;;;5.20;99.90;;;;;;5032148;28;20044;-68
2021/03/10 06:19:47;;;;;;;40.80;27.00;;;5.20;99.90;;;;;;5029823;28;20090;-69
2021/03/10 06:22:14;;;;;;;42.25;27.88;;;5.30;99.90;;;;;;5025810;28;20124;-69
2021/03/10 06:24:41;;;;;;;45.47;26.05;;;5.30;99.90;;;;;;5024929;28;20025;-69
2021/03/10 06:27:07;;;;;;;43.63;29.02;;;5.30;99.90;;;;;;5028740;28;20022;-70
2021/03/10 06:29:32;;;;;;;42.50;27.23;;;5.40;99.90;;;;;;5026095;28;20386;-70
2021/03/10 06:32:06;;;;;;;38.67;25.30;;;5.40;99.90;;;;;;5026519;28;20109;-69
2021/03/10 06:34:43;;;;;;;39.97;26.83;;;5.40;99.90;;;;;;5024420;28;20244;-68
2021/03/10 06:37:10;;;;;;;36.10;25.13;;;5.50;99.90;;;;;;5029737;28;20060;-69
2021/03/10 06:39:36;;;;;;;36.83;25.50;;;5.50;99.90;;;;;;5033507;28;20033;-69
2021/03/10 06:42:13;;;;;;;35.72;25.20;;;5.50;99.90;;;;;;5033211;28;20025;-69
2021/03/10 06:44:48;;;;;;;37.40;25.13;;;5.60;99.90;;;;;;5036095;28;20032;-69
2021/03/10 06:47:14;;;;;;;37.03;25.38;;;5.60;99.90;;;;;;5037584;28;20033;-67
2021/03/10 06:49:49;;;;;;;37.90;24.88;;;5.70;99.90;;;;;;5037424;28;20081;-68
2021/03/10 06:52:14;;;;;;;40.10;25.50;;;5.80;99.90;;;;;;5037136;28;20053;-68
2021/03/10 06:54:53;;;;;;;38.63;24.63;;;5.80;99.90;;;;;;5037781;28;20030;-68
2021/03/10 06:57:19;;;;;;;36.85;23.80;;;5.80;99.90;;;;;;5037782;28;20030;-68
2021/03/10 06:59:47;;;;;;;37.13;26.13;;;5.80;99.90;;;;;;5036974;28;20045;-69
2021/03/10 07:02:15;;;;;;;36.35;25.13;;;5.80;99.90;;;;;;5037844;28;20038;-68
2021/03/10 07:04:52;;;;;;;37.80;25.60;;;5.80;99.90;;;;;;5037694;28;20093;-69
2021/03/10 07:07:18;;;;;;;38.30;25.08;;;5.80;99.90;;;;;;5038285;28;20423;-69
2021/03/10 07:09:45;;;;;;;34.47;24.25;;;5.80;99.90;;;;;;5038335;28;20010;-68
2021/03/10 07:12:13;;;;;;;38.22;25.42;;;5.70;99.90;;;;;;5038029;28;20014;-70
2021/03/10 07:14:39;;;;;;;38.47;24.17;;;5.80;99.90;;;;;;5034521;28;20550;-69
2021/03/10 07:17:09;;;;;;;39.83;25.77;;;5.80;99.90;;;;;;5032327;28;20078;-69
2021/03/10 07:19:35;;;;;;;36.05;23.67;;;5.80;99.90;;;;;;5028182;28;20021;-69
2021/03/10 07:22:02;;;;;;;38.42;25.38;;;5.90;99.90;;;;;;5024128;28;20037;-67
2021/03/10 07:24:35;;;;;;;35.65;25.30;;;6.00;99.90;;;;;;5021359;28;20029;-69
2021/03/10 07:27:05;;;;;;;38.00;25.77;;;6.10;99.90;;;;;;5020312;28;20021;-68
2021/03/10 07:29:38;;;;;;;35.75;24.90;;;6.20;99.90;;;;;;5020467;28;20037;-70
2021/03/10 07:32:06;;;;;;;38.50;25.85;;;6.20;99.90;;;;;;5018158;28;20441;-68
2021/03/10 07:34:32;;;;;;;41.53;26.20;;;6.30;99.90;;;;;;5015986;28;20458;-69
2021/03/10 07:36:58;;;;;;;38.35;24.60;;;6.30;99.90;;;;;;5017602;28;20092;-70
2021/03/10 07:39:26;;;;;;;33.03;23.98;;;6.40;99.90;;;;;;5017995;28;20485;-69
2021/03/10 07:41:53;;;;;;;40.08;24.70;;;6.40;99.90;;;;;;5016494;28;20366;-69
2021/03/10 07:44:25;;;;;;;39.38;25.25;;;6.40;99.90;;;;;;5015480;28;20026;-69
2021/03/10 07:47:06;;;;;;;36.45;24.33;;;6.50;99.90;;;;;;5022876;28;20032;-69
2021/03/10 07:49:32;;;;;;;36.15;25.10;;;6.50;99.90;;;;;;5021299;28;20022;-69
2021/03/10 07:52:14;;;;;;;39.45;25.17;;;6.50;99.90;;;;;;5020763;28;20029;-69
2021/03/10 07:54:41;;;;;;;38.33;23.88;;;6.60;99.90;;;;;;5017822;28;20064;-69
2021/03/10 07:57:26;;;;;;;38.95;24.52;;;6.60;99.90;;;;;;5016713;28;20033;-68
2021/03/10 07:59:55;;;;;;;32.95;23.60;;;6.60;99.90;;;;;;5015774;28;20026;-70
2021/03/10 08:02:22;;;;;;;35.08;24.83;;;6.60;99.90;;;;;;5016276;28;20033;-68
2021/03/10 08:05:04;;;;;;;36.97;23.23;;;6.70;99.90;;;;;;5015240;28;20507;-69
2021/03/10 08:07:32;;;;;;;35.30;23.52;;;6.80;99.90;;;;;;5018057;28;20028;-69
2021/03/10 08:09:58;;;;;;;30.70;22.40;;;6.80;99.90;;;;;;5019213;28;20025;-68
2021/03/10 08:12:35;;;;;;;37.20;24.88;;;6.90;99.90;;;;;;5019066;28;20040;-69
2021/03/10 08:15:02;;;;;;;33.50;23.15;;;6.90;99.90;;;;;;5013304;28;20030;-69
2021/03/10 08:17:29;;;;;;;36.00;25.75;;;7.00;99.90;;;;;;5014907;28;20389;-69
2021/03/10 08:20:14;;;;;;;31.60;22.50;;;7.10;99.90;;;;;;5016743;28;20026;-69
2021/03/10 08:22:40;;;;;;;30.65;21.77;;;7.10;99.90;;;;;;5023232;28;20109;-69
2021/03/10 08:25:11;;;;;;;38.47;24.77;;;7.20;96.10;;;;;;5024239;28;20268;-69
2021/03/10 08:27:39;;;;;;;32.92;22.98;;;7.30;80.80;;;;;;5020144;28;20029;-69
2021/03/10 08:30:07;;;;;;;31.23;22.25;;;7.30;57.60;;;;;;5020480;28;20044;-69
2021/03/10 08:32:33;;;;;;;33.50;23.58;;;7.40;64.30;;;;;;5018858;28;20068;-69
2021/03/10 08:35:13;;;;;;;31.20;23.08;;;7.50;49.80;;;;;;5015105;28;20026;-68
2021/03/10 08:37:41;;;;;;;35.40;24.88;;;7.60;39.40;;;;;;5016176;28;20018;-69
2021/03/10 08:40:10;;;;;;;34.53;23.30;;;7.60;33.50;;;;;;5015356;28;20033;-69
2021/03/10 08:42:36;;;;;;;33.00;24.30;;;7.70;44.40;;;;;;5019841;28;20026;-70
2021/03/10 08:45:05;;;;;;;31.55;22.83;;;7.80;14.40;;;;;;5018040;28;20431;-69
2021/03/10 08:47:30;;;;;;;31.48;23.25;;;7.90;9.10;;;;;;5017777;28;20071;-68
2021/03/10 08:49:58;;;;;;;31.65;21.08;;;8.00;14.50;;;;;;5017641;28;20509;-69
2021/03/10 08:52:26;;;;;;;32.63;22.63;;;8.00;1.00;;;;;;5018287;28;20121;-69
2021/03/10 08:54:59;;;;;;;29.10;21.00;;;8.10;1.00;;;;;;5018444;28;20051;-69
2021/03/10 08:57:30;;;;;;;32.90;23.52;;;8.10;1.00;;;;;;5018942;28;20038;-69
2021/03/10 08:59:56;;;;;;;;;;;8.20;1.00;;;;;;5019041;28;20026;-69
2021/03/10 09:02:37;;;;;;;29.90;20.60;;;8.40;1.00;;;;;;5018204;28;19916;-68
2021/03/10 09:05:06;;;;;;;27.85;20.73;;;8.70;1.00;;;;;;5019347;28;20030;-68
2021/03/10 09:07:33;;;;;;;31.05;22.15;;;8.60;1.00;;;;;;5018601;28;20106;-70
2021/03/10 09:10:07;;;;;;;29.55;20.38;;;8.50;1.00;;;;;;5017988;28;20097;-70
2021/03/10 09:12:32;;;;;;;27.92;21.25;;;8.60;1.00;;;;;;5019962;28;20063;-69
2021/03/10 09:14:58;;;;;;;27.55;20.40;;;8.80;1.00;;;;;;5019201;28;20468;-69
2021/03/10 09:17:37;;;;;;;31.35;21.65;;;8.70;1.00;;;;;;5019603;28;21642;-69
2021/03/10 09:20:27;;;;;;;29.73;20.90;;;8.60;1.00;;;;;;5018982;28;20563;-70
2021/03/10 09:22:54;;;;;;;28.77;20.88;;;8.60;1.00;;;;;;5017711;28;20050;-69
2021/03/10 09:25:27;;;;;;;28.05;21.98;;;8.80;1.00;;;;;;5018691;28;20026;-69
2021/03/10 09:28:16;;;;;;;24.65;17.20;;;8.70;1.00;;;;;;5018810;28;20033;-69
2021/03/10 09:30:46;;;;;;;27.50;20.17;;;8.20;1.00;;;;;;5017628;28;20521;-69
2021/03/10 09:33:19;;;;;;;29.55;20.98;;;8.30;1.00;;;;;;5020267;28;20129;-69
2021/03/10 09:35:58;;;;;;;30.88;21.13;;;8.30;1.00;;;;;;5018811;28;20493;-70
2021/03/10 09:38:25;;;;;;;32.95;21.67;;;8.50;1.00;;;;;;5020304;28;20109;-69
2021/03/10 09:40:57;;;;;;;28.63;19.38;;;8.60;1.00;;;;;;5019142;28;20105;-69
2021/03/10 09:43:25;;;;;;;26.20;19.95;;;8.70;1.00;;;;;;5018430;28;20025;-69
2021/03/10 09:46:03;;;;;;;24.83;18.92;;;8.70;1.00;;;;;;5017625;28;20017;-69
2021/03/10 09:48:38;;;;;;;25.38;19.55;;;8.50;1.00;;;;;;5018136;28;20025;-69
2021/03/10 09:51:16;;;;;;;24.73;19.35;;;8.40;1.00;;;;;;5018314;28;20084;-70
2021/03/10 09:53:51;;;;;;;28.42;18.02;;;8.40;1.00;;;;;;5017351;28;20167;-70
2021/03/10 09:56:22;;;;;;;27.73;19.27;;;8.40;99.90;;;;;;5019207;28;20168;-71
2021/03/10 09:58:57;;;;;;;27.33;18.25;;;8.30;99.90;;;;;;5019569;28;20064;-68
2021/03/10 10:01:24;;;;;;;24.70;18.17;;;8.20;99.90;;;;;;5019706;28;20105;-68
2021/03/10 10:03:51;;;;;;;25.05;17.65;;;8.30;99.90;;;;;;5019873;28;20494;-69
2021/03/10 10:06:18;;;;;;;26.15;17.75;;;8.40;99.90;;;;;;5021173;28;20409;-69
2021/03/10 10:08:47;;;;;;;23.13;17.70;;;8.30;99.90;;;;;;5019825;28;20049;-68
2021/03/10 10:11:14;;;;;;;24.67;18.45;;;8.40;99.90;;;;;;5020137;28;20037;-69
2021/03/10 10:13:41;;;;;;;24.50;17.08;;;8.60;99.90;;;;;;5020251;28;20538;-70
2021/03/10 10:16:09;;;;;;;23.35;18.55;;;8.80;99.90;;;;;;5019428;28;20126;-69
2021/03/10 10:18:35;;;;;;;23.83;17.30;;;8.80;99.90;;;;;;5019702;28;20030;-69
2021/03/10 10:21:01;;;;;;;20.33;15.50;;;8.80;99.90;;;;;;5020276;28;20482;-69
2021/03/10 10:23:27;;;;;;;18.52;14.85;;;8.90;1.00;;;;;;5021013;28;20034;-69
2021/03/10 10:25:52;;;;;;;15.98;12.07;;;8.90;1.00;;;;;;5020336;28;20540;-69
2021/03/10 10:28:18;;;;;;;19.42;14.70;;;8.90;1.00;;;;;;5017249;28;20041;-69
2021/03/10 10:30:43;;;;;;;16.13;13.18;;;9.00;99.90;;;;;;5015284;28;20033;-68
2021/03/10 10:33:09;;;;;;;13.20;11.73;;;9.20;1.00;;;;;;5017629;28;20496;-69
2021/03/10 10:35:35;;;;;;;14.27;11.32;;;9.30;1.00;;;;;;5016450;28;20018;-69
2021/03/10 10:38:01;;;;;;;14.10;10.18;;;9.50;99.90;;;;;;5017250;28;20482;-69
2021/03/10 10:40:26;;;;;;;12.52;9.60;;;9.80;99.90;;;;;;5018783;28;20037;-69
2021/03/10 10:42:52;;;;;;;12.95;9.57;;;10.00;99.90;;;;;;5022644;28;20026;-69
2021/03/10 10:45:18;;;;;;;9.65;7.35;;;10.30;1.00;;;;;;5026665;28;20030;-70
2021/03/10 10:47:45;;;;;;;10.88;7.43;;;9.90;99.90;;;;;;5018520;28;20029;-69
2021/03/10 10:50:12;;;;;;;8.88;7.38;;;9.70;1.00;;;;;;5017025;28;20055;-69
2021/03/10 10:52:39;;;;;;;8.48;7.30;;;9.70;99.90;;;;;;5015707;28;20084;-69
2021/03/10 10:55:10;;;;;;;9.05;7.07;;;9.80;99.90;;;;;;5016658;28;20097;-70
2021/03/10 10:57:35;;;;;;;9.75;7.50;;;9.90;99.90;;;;;;5015588;28;20026;-69
2021/03/10 11:00:04;;;;;;;10.10;5.40;;;10.10;99.90;;;;;;5015825;28;20036;-69
2021/03/10 11:02:29;;;;;;;7.03;4.93;;;9.80;99.90;;;;;;5016952;28;20026;-69
2021/03/10 11:04:55;;;;;;;5.30;4.43;;;9.50;99.90;;;;;;5015835;28;20064;-70
2021/03/10 11:07:21;;;;;;;12.48;5.63;;;9.30;99.90;;;;;;5015015;28;20026;-69
2021/03/10 11:09:46;;;;;;;9.82;5.88;;;9.20;99.90;;;;;;5014794;28;20029;-69
2021/03/10 11:12:12;;;;;;;10.05;5.45;;;9.20;1.00;;;;;;5015501;28;20030;-69
2021/03/10 11:14:41;;;;;;;10.30;6.38;;;9.20;99.90;;;;;;5018571;28;20429;-70
2021/03/10 11:17:07;;;;;;;6.50;4.93;;;9.50;1.00;;;;;;5018805;28;20029;-69
2021/03/10 11:19:33;;;;;;;6.68;4.78;;;9.90;99.90;;;;;;5015692;28;20056;-70
2021/03/10 11:21:59;;;;;;;8.90;5.15;;;9.80;60.80;;;;;;5016197;28;20026;-70
2021/03/10 11:24:25;;;;;;;6.18;5.00;;;9.50;29.20;;;;;;5016013;28;20033;-69
2021/03/10 11:26:51;;;;;;;9.60;4.90;;;9.50;99.90;;;;;;5016271;28;20042;-69
2021/03/10 11:29:17;;;;;;;6.75;4.85;;;9.60;99.90;;;;;;5016455;28;20201;-69
2021/03/10 11:31:44;;;;;;;6.03;4.93;;;9.40;99.90;;;;;;5017622;28;20030;-69
2021/03/10 11:34:10;;;;;;;6.43;5.20;;;9.40;99.90;;;;;;5017144;28;20032;-70
2021/03/10 11:36:35;;;;;;;8.68;4.97;;;9.70;98.20;;;;;;5017078;28;20017;-70
2021/03/10 11:39:01;;;;;;;9.38;5.57;;;9.90;9.80;;;;;;5017469;28;20022;-69
2021/03/10 11:41:27;;;;;;;6.38;5.53;;;10.30;39.20;;;;;;5016982;28;20042;-70
2021/03/10 11:43:52;;;;;;;6.88;5.85;;;10.80;1.00;;;;;;5016594;28;20025;-69
2021/03/10 11:46:18;;;;;;;8.63;6.90;;;10.40;1.00;;;;;;5018802;28;20050;-69
2021/03/10 11:48:44;;;;;;;7.30;5.70;;;9.90;1.00;;;;;;5017154;28;20097;-69
2021/03/10 11:51:09;;;;;;;6.18;4.85;;;9.70;7.90;;;;;;5018681;28;20034;-70
2021/03/10 11:53:35;;;;;;;6.95;5.53;;;9.70;66.40;;;;;;5017448;28;20044;-70
2021/03/10 11:56:01;;;;;;;7.57;5.55;;;9.80;38.00;;;;;;5017859;28;20030;-69
2021/03/10 11:58:27;;;;;;;8.25;5.22;;;10.10;1.10;;;;;;5016610;28;20056;-69
2021/03/10 12:00:56;;;;;;;6.18;5.00;;;9.80;1.00;;;;;;5021762;28;20094;-69
2021/03/10 12:03:22;;;;;;;7.82;5.18;;;9.70;58.80;;;;;;5023949;28;20029;-69
2021/03/10 12:05:48;;;;;;;7.72;5.60;;;9.80;78.50;;;;;;5023161;28;20026;-70
2021/03/10 12:08:14;;;;;;;6.90;5.25;;;10.00;18.00;;;;;;5016337;28;20031;-69
2021/03/10 12:10:41;;;;;;;6.55;5.85;;;10.20;1.00;;;;;;5018430;28;20435;-69
2021/03/10 12:13:10;;;;;;;6.20;4.97;;;10.00;1.00;;;;;;5023519;28;20026;-68
2021/03/10 12:15:37;;;;;;;7.45;5.95;;;9.90;1.00;;;;;;5024087;28;20068;-70
2021/03/10 12:18:03;;;;;;;6.03;5.28;;;10.00;1.00;;;;;;5020731;28;20036;-70
2021/03/10 12:20:29;;;;;;;6.70;5.10;;;10.00;1.00;;;;;;5022140;28;20079;-69
2021/03/10 12:22:55;;;;;;;4.55;4.10;;;10.50;1.00;;;;;;5020418;28;20108;-69
2021/03/10 12:25:21;;;;;;;4.43;4.00;;;10.30;99.90;;;;;;5020670;28;20030;-70
2021/03/10 12:27:46;;;;;;;8.25;5.15;;;10.30;1.00;;;;;;5020061;28;20018;-69
2021/03/10 12:30:12;;;;;;;6.63;4.32;;;10.50;1.00;;;;;;5019806;28;20018;-70
2021/03/10 12:32:38;;;;;;;6.35;4.95;;;10.60;1.00;;;;;;5019689;28;20026;-70
2021/03/10 12:35:05;;;;;;;5.15;4.47;;;10.40;99.90;;;;;;5019726;28;20022;-69
2021/03/10 12:37:31;;;;;;;7.20;4.60;;;10.20;99.90;;;;;;5018863;28;20057;-69
2021/03/10 12:39:56;;;;;;;6.45;5.20;;;10.00;99.90;;;;;;5019670;28;20022;-69
2021/03/10 12:42:22;;;;;;;6.07;4.80;;;10.00;99.90;;;;;;5019736;28;20036;-69
2021/03/10 12:44:48;;;;;;;5.68;4.78;;;10.20;99.90;;;;;;5023141;28;20010;-69
2021/03/10 12:47:14;;;;;;;8.32;4.68;;;10.10;1.00;;;;;;5023350;28;20500;-68